Time;durP1;ratioP1;P1;durP2;ratioP2;P2;SDS_P1;SDS_P2;PMS_P1;PMS_P2;Temp;Humidity;BMP_temperature;BMP_pressure;BME280_temperature;BME280_humidity;BME280_pressure;Samples;Min_cycle;Max_cycle;Signal;HPM_P1;HPM_P2
2022/05/02 00:01:17;;;;;;;24.83;10.32;;;;;;;5.44;80.68;101958.44;5032802;28;20037;-76
2022/05/02 00:03:42;;;;;;;24.88;11.35;;;;;;;5.38;80.06;101955.97;5032772;28;20030;-76
2022/05/02 00:06:08;;;;;;;22.83;11.43;;;;;;;5.33;79.99;101952.56;5017589;28;20127;-76
2022/05/02 00:08:33;;;;;;;24.33;11.35;;;;;;;5.25;80.64;101948.38;5012750;28;20045;-76
2022/05/02 00:10:59;;;;;;;21.88;9.82;;;;;;;5.25;80.78;101952.84;5011630;28;20033;-76
2022/05/02 00:13:24;;;;;;;23.65;10.50;;;;;;;5.24;81.34;101943.09;5012939;28;20034;-76
2022/05/02 00:15:49;;;;;;;26.90;11.35;;;;;;;5.25;80.98;101945.69;5012838;28;20037;-76
2022/05/02 00:18:14;;;;;;;25.42;11.90;;;;;;;5.20;80.79;101947.66;5023007;28;20388;-76
2022/05/02 00:20:41;;;;;;;23.25;11.82;;;;;;;5.18;81.65;101951.28;5032529;28;20017;-76
2022/05/02 00:23:08;;;;;;;25.90;12.02;;;;;;;5.12;81.27;101941.72;5032764;28;20025;-76
2022/05/02 00:25:34;;;;;;;21.55;10.90;;;;;;;5.12;81.83;101943.50;5031156;28;20032;-76
2022/05/02 00:28:01;;;;;;;26.27;12.07;;;;;;;5.11;82.00;101941.75;5032326;28;20032;-76
2022/05/02 00:30:27;;;;;;;23.88;10.80;;;;;;;5.09;81.83;101936.47;5032216;28;20030;-76
2022/05/02 00:32:53;;;;;;;22.30;10.73;;;;;;;5.05;81.51;101930.41;5032049;28;20500;-76
2022/05/02 00:35:18;;;;;;;22.33;9.85;;;;;;;5.03;81.73;101934.03;5031210;28;20025;-76
2022/05/02 00:37:44;;;;;;;23.23;10.93;;;;;;;5.01;82.01;101931.41;5013213;28;20029;-76
2022/05/02 00:40:14;;;;;;;23.45;11.88;;;;;;;5.00;81.90;101924.31;5011125;28;20029;-76
2022/05/02 00:42:43;;;;;;;26.17;11.73;;;;;;;4.99;81.46;101921.72;5012386;28;20405;-76
2022/05/02 00:45:10;;;;;;;23.23;11.27;;;;;;;4.98;81.29;101927.97;5012368;28;20032;-76
2022/05/02 00:47:36;;;;;;;22.48;10.48;;;;;;;4.97;81.69;101923.56;5018261;28;20029;-76
2022/05/02 00:50:07;;;;;;;22.80;10.20;;;;;;;4.92;81.76;101922.84;5031900;28;20021;-76
2022/05/02 00:52:32;;;;;;;24.13;10.85;;;;;;;4.88;82.46;101914.94;5031534;28;20044;-76
2022/05/02 00:54:59;;;;;;;25.20;11.68;;;;;;;4.86;82.13;101918.56;5031792;28;20397;-76
2022/05/02 00:57:25;;;;;;;22.58;11.90;;;;;;;4.80;82.30;101918.78;5031953;28;20072;-76
2022/05/02 00:59:50;;;;;;;23.80;10.95;;;;;;;4.72;82.40;101914.56;5032245;28;20452;-76
2022/05/02 01:02:16;;;;;;;22.88;9.90;;;;;;;4.70;82.81;101916.41;5030345;28;20384;-76
2022/05/02 01:04:42;;;;;;;24.38;11.18;;;;;;;4.67;81.88;101920.94;5031598;28;20100;-76
2022/05/02 01:07:08;;;;;;;23.15;11.02;;;;;;;4.64;82.04;101915.72;5029930;28;20060;-76
2022/05/02 01:09:34;;;;;;;22.77;10.68;;;;;;;4.64;82.16;101923.72;5031707;28;20140;-76
2022/05/02 01:11:59;;;;;;;23.67;10.77;;;;;;;4.55;82.01;101915.13;5031530;28;20116;-76
2022/05/02 01:14:25;;;;;;;23.42;11.20;;;;;;;4.53;82.51;101913.41;5031549;28;20022;-76
2022/05/02 01:16:50;;;;;;;24.40;11.57;;;;;;;4.52;82.41;101915.22;5029798;28;20025;-76
2022/05/02 01:19:15;;;;;;;29.10;11.43;;;;;;;4.50;82.64;101919.69;5030084;28;20025;-76
2022/05/02 01:21:44;;;;;;;24.33;11.57;;;;;;;4.46;82.53;101910.06;5031368;28;20030;-76
2022/05/02 01:24:09;;;;;;;24.52;10.25;;;;;;;4.43;82.36;101919.94;5031429;28;20130;-76
2022/05/02 01:26:34;;;;;;;27.05;10.77;;;;;;;4.42;82.42;101912.84;5017218;28;20037;-76
2022/05/02 01:29:01;;;;;;;22.90;10.82;;;;;;;4.38;82.11;101920.94;5011717;28;20065;-76
2022/05/02 01:31:27;;;;;;;22.70;11.02;;;;;;;4.36;82.13;101908.59;5011527;28;20397;-76
2022/05/02 01:33:53;;;;;;;21.98;10.40;;;;;;;4.31;82.24;101916.72;5010264;28;20029;-76
2022/05/02 01:36:22;;;;;;;26.05;11.57;;;;;;;4.30;82.61;101917.63;5011196;28;20034;-76
2022/05/02 01:38:48;;;;;;;23.60;11.13;;;;;;;4.29;82.67;101915.91;5010410;28;20120;-76
2022/05/02 01:41:13;;;;;;;23.45;11.25;;;;;;;4.26;83.09;101909.78;5011584;28;20057;-76
2022/05/02 01:43:40;;;;;;;22.85;10.98;;;;;;;4.22;82.97;101908.13;5011294;28;20050;-76
2022/05/02 01:46:06;;;;;;;23.83;10.45;;;;;;;4.20;83.13;101908.16;5010198;28;20450;-76
2022/05/02 01:48:32;;;;;;;22.73;10.40;;;;;;;4.17;82.62;101906.50;5023795;28;20057;-76
2022/05/02 01:50:58;;;;;;;23.20;10.45;;;;;;;4.17;82.38;101908.25;5029735;28;20057;-76
2022/05/02 01:53:24;;;;;;;24.70;11.75;;;;;;;4.13;82.48;101904.84;5031154;28;20366;-76
2022/05/02 01:55:49;;;;;;;20.67;9.75;;;;;;;4.12;82.87;101908.41;5031095;28;20046;-76
2022/05/02 01:58:15;;;;;;;23.40;11.27;;;;;;;4.10;82.57;101901.38;5029652;28;20033;-76
2022/05/02 02:00:40;;;;;;;26.25;11.65;;;;;;;4.04;82.46;101897.09;5029612;28;20392;-76
2022/05/02 02:03:06;;;;;;;22.52;9.93;;;;;;;4.04;82.67;101897.09;5031400;28;20091;-75
2022/05/02 02:05:49;;;;;;;23.50;10.63;;;;;;;4.03;82.52;101898.03;5026395;28;20032;-75
2022/05/02 02:08:29;;;;;;;22.83;10.48;;;;;;;4.02;82.37;101891.81;5015053;28;20406;-75
2022/05/02 02:10:57;;;;;;;24.65;11.02;;;;;;;3.99;82.12;101901.69;5015496;28;20026;-75
2022/05/02 02:13:23;;;;;;;22.58;9.60;;;;;;;3.97;82.58;101900.88;5013754;28;20145;-75
2022/05/02 02:15:48;;;;;;;22.08;10.15;;;;;;;3.94;82.55;101900.94;5014976;28;20061;-75
2022/05/02 02:18:14;;;;;;;26.75;10.95;;;;;;;3.91;82.66;101895.72;5026537;28;20469;-75
2022/05/02 02:20:45;;;;;;;24.40;11.27;;;;;;;3.89;82.62;101894.91;5034618;28;20021;-75
2022/05/02 02:23:12;;;;;;;24.67;10.82;;;;;;;3.83;82.60;101902.13;5034603;28;20033;-75
2022/05/02 02:25:38;;;;;;;25.58;12.20;;;;;;;3.80;82.76;101896.03;5034760;28;20052;-75
2022/05/02 02:28:04;;;;;;;22.63;10.32;;;;;;;3.80;82.81;101902.22;5034718;28;20021;-75
2022/05/02 02:30:29;;;;;;;21.83;10.65;;;;;;;3.77;83.08;101902.31;5032419;28;20049;-75
2022/05/02 02:32:56;;;;;;;25.00;11.52;;;;;;;3.77;83.56;101906.75;5034844;28;20021;-75
2022/05/02 02:35:21;;;;;;;23.52;11.25;;;;;;;3.76;83.60;101905.88;5033190;28;20022;-75
2022/05/02 02:37:48;;;;;;;26.17;10.82;;;;;;;3.73;83.58;101894.47;5033028;28;20029;-75
2022/05/02 02:40:13;;;;;;;23.02;9.98;;;;;;;3.66;83.45;101899.97;5033091;28;20022;-75
2022/05/02 02:42:39;;;;;;;22.95;10.23;;;;;;;3.61;83.04;101893.00;5034411;28;20380;-75
2022/05/02 02:45:04;;;;;;;21.58;10.02;;;;;;;3.58;83.29;101885.13;5034379;28;20034;-75
2022/05/02 02:47:30;;;;;;;25.73;10.48;;;;;;;3.57;83.18;101884.22;5032779;28;20480;-75
2022/05/02 02:49:55;;;;;;;24.63;10.93;;;;;;;3.57;83.22;101884.22;5032758;28;20017;-75
2022/05/02 02:52:20;;;;;;;22.80;10.48;;;;;;;3.55;83.22;101893.19;5034052;28;20025;-75
2022/05/02 02:54:46;;;;;;;22.00;9.75;;;;;;;3.56;83.39;101885.16;5025122;28;20038;-75
2022/05/02 02:57:11;;;;;;;23.48;11.65;;;;;;;3.55;82.80;101879.91;5014405;28;20022;-75
2022/05/02 02:59:36;;;;;;;22.35;10.75;;;;;;;3.53;82.69;101887.03;5013039;28;20025;-75
2022/05/02 03:02:02;;;;;;;23.58;10.85;;;;;;;3.50;82.76;101880.88;5012763;28;20026;-75
2022/05/02 03:07:12;;;;;;;22.70;10.25;;;;;;;3.46;82.72;101871.25;5013805;28;20532;-75
2022/05/02 03:09:37;;;;;;;25.13;11.60;;;;;;;3.44;82.85;101875.75;5014494;28;20030;-75
2022/05/02 03:12:03;;;;;;;22.30;10.93;;;;;;;3.40;82.64;101868.75;5014134;28;20466;-75
2022/05/02 03:14:28;;;;;;;22.65;11.32;;;;;;;3.38;83.03;101873.22;5013588;28;20500;-75
2022/05/02 03:16:53;;;;;;;23.23;10.80;;;;;;;3.37;82.67;101875.94;5013043;28;20104;-75
2022/05/02 03:19:19;;;;;;;23.85;11.55;;;;;;;3.36;83.09;101877.72;5033891;28;20025;-75
2022/05/02 03:21:44;;;;;;;23.40;11.93;;;;;;;3.33;82.74;101869.84;5032196;28;20060;-75
2022/05/02 03:24:09;;;;;;;24.75;11.48;;;;;;;3.31;83.07;101867.22;5032265;28;20048;-75
2022/05/02 03:26:34;;;;;;;23.50;11.40;;;;;;;3.30;82.70;101864.59;5019457;28;20022;-75
2022/05/02 03:29:00;;;;;;;25.20;12.50;;;;;;;3.28;83.15;101871.72;5012408;28;20030;-75
2022/05/02 03:31:25;;;;;;;24.35;10.70;;;;;;;3.28;82.84;101869.06;5012402;28;20117;-75
2022/05/02 03:33:50;;;;;;;26.52;11.45;;;;;;;3.29;83.18;101868.16;5013859;28;20038;-75
2022/05/02 03:36:16;;;;;;;26.52;11.35;;;;;;;3.28;82.80;101866.41;5012134;28;20026;-75
2022/05/02 03:38:41;;;;;;;23.65;11.23;;;;;;;3.26;82.85;101862.94;5012192;28;20030;-75
2022/05/02 03:41:06;;;;;;;25.38;11.20;;;;;;;3.23;83.48;101860.38;5013363;28;20022;-75
2022/05/02 03:43:32;;;;;;;28.08;11.32;;;;;;;3.21;83.21;101864.88;5012069;28;20030;-75
2022/05/02 03:45:57;;;;;;;23.27;9.98;;;;;;;3.18;82.85;101857.84;5013218;28;20480;-75
2022/05/02 03:48:22;;;;;;;22.83;11.05;;;;;;;3.19;82.91;101856.03;5024531;28;20428;-75
2022/05/02 03:50:47;;;;;;;23.40;11.55;;;;;;;3.15;83.47;101864.09;5031535;28;20057;-75
2022/05/02 03:53:15;;;;;;;28.45;13.18;;;;;;;3.15;83.58;101863.25;5032956;28;20033;-75
2022/05/02 03:55:42;;;;;;;25.70;13.13;;;;;;;3.13;83.57;101860.63;5033253;28;20032;-75
2022/05/02 03:58:08;;;;;;;24.40;11.73;;;;;;;3.11;83.53;101858.91;5032969;28;20030;-75
2022/05/02 04:00:34;;;;;;;25.15;12.60;;;;;;;3.11;83.50;101867.75;5031660;28;20029;-75
2022/05/02 04:03:00;;;;;;;28.35;13.50;;;;;;;3.10;83.57;101863.31;5032341;28;20116;-75
2022/05/02 04:05:25;;;;;;;26.95;12.95;;;;;;;3.10;83.76;101858.00;5023364;28;20037;-75
2022/05/02 04:07:51;;;;;;;27.67;12.98;;;;;;;3.09;83.67;101858.94;5012638;28;20196;-75
2022/05/02 04:10:16;;;;;;;27.05;14.10;;;;;;;3.08;83.66;101864.31;5012891;28;20043;-75
2022/05/02 04:12:42;;;;;;;25.05;12.77;;;;;;;3.04;84.14;101860.84;5013325;28;20030;-75
2022/05/02 04:15:11;;;;;;;27.23;12.45;;;;;;;3.04;83.85;101863.50;5011847;28;20063;-75
2022/05/02 04:17:40;;;;;;;25.05;12.00;;;;;;;3.04;84.06;101866.16;5017680;28;20037;-75
2022/05/02 04:20:07;;;;;;;23.88;12.52;;;;;;;3.04;84.07;101859.97;5031373;28;20060;-75
2022/05/02 04:22:33;;;;;;;31.20;13.73;;;;;;;3.03;83.83;101867.09;5032849;28;20464;-75
2022/05/02 04:24:59;;;;;;;24.70;12.57;;;;;;;3.04;83.59;101868.81;5031140;28;20033;-75
2022/05/02 04:27:24;;;;;;;27.30;12.68;;;;;;;3.03;83.25;101864.44;5031461;28;20033;-75
2022/05/02 04:29:49;;;;;;;25.27;12.85;;;;;;;3.02;84.15;101873.28;5032190;28;20033;-75
2022/05/02 04:32:14;;;;;;;25.63;12.63;;;;;;;3.03;83.79;101861.78;5030904;28;20029;-75
2022/05/02 04:34:40;;;;;;;26.63;13.98;;;;;;;3.02;84.08;101867.97;5032322;28;20530;-75
2022/05/02 04:37:07;;;;;;;25.00;12.85;;;;;;;3.05;83.83;101864.38;5032009;28;20021;-75
2022/05/02 04:39:32;;;;;;;26.13;12.00;;;;;;;3.02;84.53;101864.47;5032232;28;20097;-75
2022/05/02 04:41:57;;;;;;;24.90;12.35;;;;;;;3.03;84.42;101860.88;5032122;28;20057;-75
2022/05/02 04:44:22;;;;;;;28.27;13.05;;;;;;;3.03;84.51;101863.53;5032419;28;20037;-75
2022/05/02 04:46:49;;;;;;;25.40;14.02;;;;;;;3.06;85.11;101858.13;5031919;28;20029;-75
2022/05/02 04:49:14;;;;;;;26.90;13.77;;;;;;;3.05;84.95;101862.59;5031909;28;20393;-75
2022/05/02 04:51:39;;;;;;;26.15;13.15;;;;;;;3.08;85.25;101865.16;5031793;28;20044;-75
2022/05/02 04:54:04;;;;;;;25.65;13.15;;;;;;;3.13;85.20;101862.38;5030685;28;20481;-75
2022/05/02 04:56:30;;;;;;;26.75;14.57;;;;;;;3.19;84.87;101866.66;5012120;28;20401;-75
2022/05/02 04:58:55;;;;;;;29.52;14.75;;;;;;;3.23;85.12;101869.19;5012217;28;20041;-75
2022/05/02 05:01:20;;;;;;;26.90;14.63;;;;;;;3.24;85.17;101864.78;5010556;28;20080;-75
2022/05/02 05:03:46;;;;;;;26.30;14.57;;;;;;;3.28;85.35;101869.06;5012026;28;20026;-75
2022/05/02 05:06:12;;;;;;;28.13;13.65;;;;;;;3.33;85.83;101875.16;5011788;28;20083;-75
2022/05/02 05:08:37;;;;;;;28.40;14.95;;;;;;;3.38;86.20;101875.03;5011789;28;20485;-75
2022/05/02 05:11:55;;;;;;;26.80;14.57;;;;;;;3.47;85.68;101877.44;5011922;28;20112;-75
2022/05/02 05:17:56;;;;;;;30.33;15.77;;;;;;;3.60;86.88;101868.22;4995824;28;20088;-75
2022/05/02 05:20:38;;;;;;;28.95;15.38;;;;;;;3.69;86.18;101875.06;5009262;28;20116;-75
2022/05/02 05:23:20;;;;;;;30.38;14.98;;;;;;;3.79;86.25;101873.91;5009241;28;20037;-75
2022/05/02 05:26:15;;;;;;;30.27;16.77;;;;;;;3.92;85.65;101874.41;4982458;28;20085;-75
2022/05/02 05:29:20;;;;;;;31.42;18.15;;;;;;;4.04;86.23;101865.19;4970476;28;20494;-75
2022/05/02 05:32:05;;;;;;;32.47;17.77;;;;;;;4.14;86.80;101872.00;4970265;28;20043;-75
2022/05/02 05:34:56;;;;;;;34.05;17.23;;;;;;;4.27;87.26;101868.97;4970137;28;20047;-75
2022/05/02 05:37:49;;;;;;;43.63;19.08;;;;;;;4.40;86.82;101858.81;4969763;28;20554;-75
2022/05/02 05:40:28;;;;;;;34.75;20.08;;;;;;;4.53;87.50;101861.03;4970036;28;20034;-75
2022/05/02 05:43:24;;;;;;;38.58;20.05;;;;;;;4.68;87.11;101864.13;4970265;28;20030;-75
2022/05/02 05:46:16;;;;;;;32.00;19.55;;;;;;;4.81;87.03;101867.25;4970176;28;20113;-75
2022/05/02 05:49:01;;;;;;;43.03;21.70;;;;;;;4.90;87.10;101862.50;5016834;28;20045;-75
2022/05/02 05:51:34;;;;;;;37.63;21.23;;;;;;;5.04;87.29;101874.50;5031006;28;20525;-75
2022/05/02 05:54:21;;;;;;;36.75;22.58;;;;;;;5.14;87.05;101869.69;5029874;28;20032;-75
2022/05/02 05:57:08;;;;;;;35.47;22.92;;;;;;;5.23;87.17;101864.94;5031239;28;20454;-75
2022/05/02 05:59:54;;;;;;;35.35;21.92;;;;;;;5.36;86.85;101873.38;5031302;28;20022;-75
2022/05/02 06:02:23;;;;;;;36.55;21.60;;;;;;;5.48;86.75;101873.88;5031103;28;20460;-75
2022/05/02 06:04:50;;;;;;;38.72;20.88;;;;;;;5.58;87.41;101870.81;5029993;28;20099;-75
2022/05/02 06:07:19;;;;;;;37.22;23.02;;;;;;;5.70;87.38;101876.66;5030691;28;20060;-75
2022/05/02 06:09:47;;;;;;;39.80;24.45;;;;;;;5.80;87.91;101877.16;5030984;28;20438;-75
2022/05/02 06:12:13;;;;;;;40.25;25.17;;;;;;;5.87;89.36;101874.22;5031125;28;20366;-75
2022/05/02 06:20:15;;;;;;;41.72;26.25;;;;;;;6.20;90.04;101875.72;5030936;28;20040;-75
2022/05/02 06:22:41;;;;;;;45.22;25.50;;;;;;;6.29;90.10;101872.69;5031248;28;20029;-75
2022/05/02 06:25:06;;;;;;;37.40;23.85;;;;;;;6.36;90.22;101876.84;5030944;28;20029;-75
2022/05/02 06:27:33;;;;;;;37.58;25.23;;;;;;;6.46;89.65;101877.38;5012956;28;20026;-75
2022/05/02 06:30:02;;;;;;;34.38;23.70;;;;;;;6.53;87.55;101884.22;5030688;28;20037;-75
2022/05/02 06:32:30;;;;;;;38.83;24.50;;;;;;;6.63;88.48;101874.91;5029139;28;20390;-75
2022/05/02 06:34:56;;;;;;;38.45;25.85;;;;;;;6.74;88.42;101877.13;5029595;28;20771;-75
2022/05/02 06:37:39;;;;;;;35.30;22.98;;;;;;;6.84;87.30;101874.97;5030690;28;20041;-75
2022/05/02 06:40:22;;;;;;;39.28;25.77;;;;;;;6.97;87.72;101876.19;5030820;28;20025;-75
2022/05/02 06:43:03;;;;;;;36.72;24.25;;;;;;;7.05;87.27;101880.34;5030760;28;20560;-75
2022/05/02 06:46:03;;;;;;;36.83;25.30;;;;;;;7.18;86.00;101876.22;5012927;28;20041;-75
2022/05/02 06:48:31;;;;;;;36.67;25.50;;;;;;;7.29;87.27;101881.97;5030407;28;20112;-75
2022/05/02 06:51:04;;;;;;;39.65;23.83;;;;;;;7.35;85.94;101879.03;5033841;28;20128;-75
2022/05/02 06:53:59;;;;;;;32.92;21.20;;;;;;;7.40;83.71;101881.50;5034132;28;20025;-75
2022/05/02 06:56:45;;;;;;;35.13;22.55;;;;;;;7.51;82.16;101878.34;4993424;28;20050;-75
2022/05/02 06:59:34;;;;;;;33.97;19.55;;;;;;;7.60;78.87;101885.09;4994898;28;20038;-75
2022/05/02 07:02:15;;;;;;;30.00;19.30;;;;;;;7.64;79.36;101882.25;4994479;28;20046;-75
2022/05/02 07:04:48;;;;;;;35.25;20.98;;;;;;;7.80;82.48;101874.38;4993234;28;20022;-75
2022/05/02 07:07:42;;;;;;;31.00;19.58;;;;;;;7.90;79.95;101880.19;4992870;28;20454;-75
2022/05/02 07:10:17;;;;;;;32.08;20.88;;;;;;;8.02;78.99;101876.97;4977287;28;20043;-75
2022/05/02 07:13:02;;;;;;;35.17;22.63;;;;;;;8.17;80.94;101871.81;4993470;28;20041;-75
2022/05/02 07:15:50;;;;;;;32.50;20.73;;;;;;;8.31;79.75;101876.53;4994461;28;20501;-75
2022/05/02 07:18:30;;;;;;;32.15;19.60;;;;;;;8.43;80.66;101878.63;5017561;28;20432;-75
2022/05/02 07:21:15;;;;;;;30.77;19.52;;;;;;;8.51;78.41;101873.81;5032244;28;20424;-75
2022/05/02 07:23:49;;;;;;;31.73;20.20;;;;;;;8.71;80.48;101872.84;5033356;28;20029;-75
2022/05/02 07:26:21;;;;;;;29.77;18.77;;;;;;;8.82;77.73;101876.81;5022379;28;20036;-75
2022/05/02 07:28:49;;;;;;;34.00;19.20;;;;;;;8.93;77.69;101869.06;5013700;28;20048;-75
2022/05/02 07:31:23;;;;;;;30.83;17.08;;;;;;;9.01;77.64;101874.94;5012394;28;20018;-75
2022/05/02 07:33:51;;;;;;;30.48;21.05;;;;;;;9.08;75.68;101876.34;5012303;28;20579;-75
2022/05/02 07:36:22;;;;;;;29.88;19.73;;;;;;;9.14;75.44;101868.97;5013366;28;20541;-75
2022/05/02 07:38:53;;;;;;;35.75;20.45;;;;;;;9.32;76.61;101873.38;5013626;28;20050;-75
2022/05/02 07:41:26;;;;;;;29.20;18.50;;;;;;;9.48;75.45;101869.91;5013548;28;20026;-75
2022/05/02 07:44:09;;;;;;;31.98;19.98;;;;;;;9.62;75.22;101878.94;5013538;28;20449;-75
2022/05/02 07:46:41;;;;;;;31.10;18.13;;;;;;;9.72;72.83;101871.28;5011962;28;20026;-75
2022/05/02 07:49:08;;;;;;;28.33;15.45;;;;;;;9.71;70.94;101874.06;5032097;28;20552;-75
2022/05/02 07:51:40;;;;;;;32.28;18.73;;;;;;;9.78;71.38;101872.75;5031577;28;20116;-75
2022/05/02 07:54:12;;;;;;;29.15;17.48;;;;;;;9.93;71.21;101876.44;5033081;28;20033;-75
2022/05/02 07:56:38;;;;;;;27.20;16.40;;;;;;;10.04;71.48;101870.47;5031739;28;20036;-75
2022/05/02 07:59:07;;;;;;;29.90;18.85;;;;;;;10.09;70.23;101879.16;5031693;28;20032;-75
2022/05/02 08:01:32;;;;;;;29.58;17.58;;;;;;;10.18;70.06;101872.44;5032765;28;20013;-75
2022/05/02 08:03:57;;;;;;;29.17;16.27;;;;;;;10.34;70.76;101878.72;5031396;28;20087;-75
2022/05/02 08:06:35;;;;;;;31.02;16.15;;;;;;;10.40;69.60;101878.34;5032331;28;20025;-75
2022/05/02 08:09:28;;;;;;;30.65;15.70;;;;;;;10.45;69.04;101881.66;5033000;28;20092;-75
2022/05/02 08:11:59;;;;;;;25.95;14.30;;;;;;;10.46;67.07;101869.94;5032645;28;20041;-75
2022/05/02 08:14:32;;;;;;;33.83;15.38;;;;;;;10.56;66.80;101877.50;5030796;28;20393;-75
2022/05/02 08:17:03;;;;;;;27.17;15.00;;;;;;;10.61;66.00;101870.88;5013710;28;20041;-75
2022/05/02 08:19:37;;;;;;;26.00;14.82;;;;;;;10.67;67.23;101866.97;5032550;28;20084;-75
2022/05/02 08:28:14;;;;;;;24.55;12.10;;;;;;;11.12;61.35;101869.78;5032421;28;20040;-75
2022/05/02 08:30:58;;;;;;;25.25;11.60;;;;;;;11.27;61.67;101871.53;5032142;28;20076;-75
2022/05/02 08:33:30;;;;;;;24.15;13.15;;;;;;;11.36;61.75;101873.69;5032376;28;20052;-75
2022/05/02 08:36:00;;;;;;;26.67;13.23;;;;;;;11.41;61.47;101869.88;5031984;28;20553;-75
2022/05/02 08:38:32;;;;;;;24.27;11.93;;;;;;;11.45;62.89;101872.28;5031164;28;20112;-75
2022/05/02 08:41:00;;;;;;;23.80;12.07;;;;;;;11.49;62.85;101870.25;5032110;28;20021;-75
2022/05/02 08:43:56;;;;;;;24.80;12.32;;;;;;;11.56;61.92;101868.06;5032160;28;20037;-75
2022/05/02 08:46:36;;;;;;;24.40;13.05;;;;;;;11.68;62.65;101870.00;5031971;28;20035;-75
2022/05/02 08:49:38;;;;;;;26.08;13.88;;;;;;;11.75;61.21;101874.03;5031950;28;20528;-75
2022/05/02 08:52:41;;;;;;;24.40;12.63;;;;;;;11.78;61.21;101868.47;5030265;28;20033;-75
2022/05/02 08:55:32;;;;;;;25.88;13.52;;;;;;;11.94;61.00;101867.53;5022046;28;20363;-75
2022/05/02 08:58:37;;;;;;;26.27;15.13;;;;;;;12.00;60.08;101865.31;5012415;28;20041;-75
2022/05/02 09:01:21;;;;;;;26.10;13.98;;;;;;;12.04;58.17;101864.16;5011912;28;20034;-75
2022/05/02 09:04:08;;;;;;;28.05;13.55;;;;;;;12.14;58.61;101863.56;5012035;28;20033;-75
2022/05/02 09:07:12;;;;;;;24.80;13.88;;;;;;;12.21;59.47;101864.91;5011712;28;20018;-75
2022/05/02 09:10:01;;;;;;;24.50;13.55;;;;;;;12.27;58.85;101859.16;5010419;28;20245;-75
2022/05/02 09:12:57;;;;;;;24.30;13.07;;;;;;;12.30;59.96;101858.06;5011648;28;20029;-75
2022/05/02 09:15:58;;;;;;;28.48;13.68;;;;;;;12.26;58.58;101852.03;5010671;28;20053;-75
2022/05/02 09:18:32;;;;;;;25.08;13.05;;;;;;;12.33;56.99;101858.75;5024388;28;20401;-75
2022/05/02 09:21:00;;;;;;;20.95;9.70;;;;;;;12.43;55.14;101861.72;5031580;28;20079;-75
2022/05/02 09:23:41;;;;;;;22.75;10.68;;;;;;;12.48;55.34;101856.03;5030072;28;20025;-75
2022/05/02 09:26:06;;;;;;;24.90;9.88;;;;;;;12.46;54.97;101852.53;5031297;28;20030;-75
2022/05/02 09:29:02;;;;;;;22.48;10.50;;;;;;;12.53;53.75;101843.97;5030075;28;20033;-76
2022/05/02 09:32:05;;;;;;;22.38;10.30;;;;;;;12.57;53.08;101845.47;5031193;28;20437;-76
2022/05/02 09:34:47;;;;;;;26.25;12.40;;;;;;;12.68;54.57;101843.91;5031246;28;20032;-76
2022/05/02 09:37:21;;;;;;;23.95;12.95;;;;;;;12.76;54.57;101846.97;5031141;28;20026;-76
2022/05/02 09:39:52;;;;;;;21.85;11.20;;;;;;;12.85;53.63;101848.19;5031345;28;20536;-76
2022/05/02 09:42:39;;;;;;;22.55;11.45;;;;;;;12.91;53.56;101843.25;5031729;28;20092;-76
2022/05/02 09:51:51;;;;;;;23.40;11.82;;;;;;;13.00;55.30;101832.78;4989156;28;20108;-74
2022/05/02 09:58:00;;;;;;;24.88;13.20;;;;;;;13.13;52.72;101820.19;4989735;28;20061;-76
2022/05/02 10:03:25;;;;;;;24.70;12.70;;;;;;;13.25;52.91;101829.28;4989363;28;20072;-76
2022/05/02 10:06:10;;;;;;;22.27;12.05;;;;;;;13.23;52.40;101826.69;4988797;28;20489;-76
2022/05/02 10:08:48;;;;;;;23.27;11.02;;;;;;;13.25;53.09;101827.47;4989197;28;20141;-76
2022/05/02 10:11:32;;;;;;;22.17;11.07;;;;;;;13.33;51.46;101821.50;4972962;28;20615;-76
2022/05/02 10:14:07;;;;;;;26.83;13.07;;;;;;;13.44;52.43;101828.88;4973026;28;20034;-76
2022/05/02 10:16:47;;;;;;;21.77;10.55;;;;;;;13.51;52.48;101822.09;4956857;28;20397;-76
2022/05/02 10:19:20;;;;;;;26.30;11.95;;;;;;;13.51;50.87;101822.09;4979739;28;20070;-76
2022/05/02 10:22:08;;;;;;;22.63;11.30;;;;;;;13.59;52.92;101825.13;4991246;28;20496;-76
2022/05/02 10:24:49;;;;;;;22.13;10.93;;;;;;;13.69;51.24;101819.06;4991915;28;20038;-76
2022/05/02 10:27:32;;;;;;;23.67;11.40;;;;;;;13.80;53.79;101814.63;4992895;28;20081;-76
2022/05/02 10:30:00;;;;;;;22.48;11.35;;;;;;;13.89;52.09;101814.94;4995252;28;20031;-76
2022/05/02 10:32:56;;;;;;;23.30;12.07;;;;;;;13.90;51.78;101805.88;4995553;28;20031;-76
2022/05/02 10:35:23;;;;;;;25.55;11.65;;;;;;;13.94;48.30;101818.19;4995770;28;20105;-76
2022/05/02 10:37:59;;;;;;;22.92;9.80;;;;;;;13.96;51.42;101810.81;4995050;28;20161;-76
2022/05/02 10:40:42;;;;;;;25.42;10.60;;;;;;;13.97;51.44;101818.81;4995379;28;20445;-76
2022/05/02 10:43:16;;;;;;;23.77;10.82;;;;;;;14.09;49.12;101811.66;4994219;28;20038;-76
2022/05/02 10:45:41;;;;;;;23.65;10.45;;;;;;;14.08;49.51;101800.97;4977970;28;20069;-76
2022/05/02 10:48:11;;;;;;;24.23;11.02;;;;;;;14.09;47.80;101803.53;5015414;28;20061;-76
2022/05/02 10:50:37;;;;;;;24.95;9.55;;;;;;;14.11;48.06;101800.72;5033124;28;20498;-76
2022/05/02 10:53:02;;;;;;;23.92;10.57;;;;;;;14.12;47.47;101803.31;5034112;28;20029;-76
2022/05/02 10:55:32;;;;;;;24.50;11.48;;;;;;;14.14;47.83;101800.50;5032993;28;20029;-76
2022/05/02 10:58:01;;;;;;;;;;;;;;;14.14;50.90;101795.09;5034602;28;20245;-76
2022/05/02 11:00:28;;;;;;;22.83;11.77;;;;;;;14.15;48.55;101797.69;5032691;28;20004;-76
2022/05/02 11:02:58;;;;;;;22.42;9.90;;;;;;;14.24;50.33;101777.22;5033961;28;20033;-76
2022/05/02 11:05:35;;;;;;;22.90;10.07;;;;;;;14.30;51.77;101784.88;5017973;28;20092;-76
2022/05/02 11:08:11;;;;;;;22.52;11.52;;;;;;;14.40;50.04;101785.06;5013977;28;20062;-76
2022/05/02 11:10:47;;;;;;;20.05;9.18;;;;;;;14.48;49.03;101792.59;5014078;28;20041;-76
2022/05/02 11:13:28;;;;;;;22.45;11.02;;;;;;;14.53;48.60;101787.72;5012850;28;20029;-76
2022/05/02 11:15:54;;;;;;;22.80;9.73;;;;;;;14.55;45.64;101782.19;5013982;28;20026;-76
2022/05/02 11:22:13;;;;;;;22.13;10.35;;;;;;;14.49;47.07;101778.09;5032977;28;20154;-76
2022/05/02 11:25:00;;;;;;;23.35;10.40;;;;;;;14.51;46.66;101779.72;5033905;28;20037;-76
2022/05/02 11:27:56;;;;;;;23.35;10.50;;;;;;;14.56;48.35;101765.84;5032225;28;20040;-76
2022/05/02 11:30:28;;;;;;;22.15;11.25;;;;;;;14.62;47.07;101769.97;5033808;28;20033;-76
2022/05/02 11:33:15;;;;;;;24.17;11.43;;;;;;;14.66;47.38;101763.34;5032153;28;20021;-76
2022/05/02 11:35:47;;;;;;;22.95;11.18;;;;;;;14.72;46.65;101762.00;5031551;28;20033;-76
2022/05/02 11:38:34;;;;;;;24.23;10.90;;;;;;;14.73;48.18;101750.19;5033372;28;20495;-76
2022/05/02 11:41:18;;;;;;;22.65;10.90;;;;;;;14.71;46.15;101760.28;5032018;28;20021;-76
2022/05/02 11:43:45;;;;;;;27.05;13.27;;;;;;;14.76;46.54;101748.13;5029169;28;20389;-76
2022/05/02 11:46:18;;;;;;;20.38;9.75;;;;;;;14.79;47.92;101758.72;5013432;28;20029;-76
2022/05/02 11:48:46;;;;;;;21.35;9.88;;;;;;;14.87;48.32;101751.84;5028716;28;20105;-76
2022/05/02 11:51:32;;;;;;;28.17;11.15;;;;;;;14.88;47.32;101757.13;5031634;28;20029;-76
2022/05/02 11:53:58;;;;;;;21.65;10.30;;;;;;;14.86;43.24;101753.66;5033098;28;20021;-76
2022/05/02 11:56:39;;;;;;;22.38;10.48;;;;;;;14.86;46.08;101753.66;5031836;28;20025;-76
2022/05/02 11:59:10;;;;;;;22.08;10.43;;;;;;;14.95;46.06;101755.69;5033411;28;20036;-76
2022/05/02 12:01:41;;;;;;;26.58;10.93;;;;;;;14.94;43.70;101747.69;5032868;28;20051;-76
2022/05/02 12:04:08;;;;;;;22.48;10.40;;;;;;;14.98;47.08;101752.75;5033059;28;20029;-76
2022/05/02 12:06:50;;;;;;;23.48;10.32;;;;;;;14.94;44.96;101753.94;5032648;28;20485;-76
2022/05/02 12:09:22;;;;;;;21.77;9.60;;;;;;;14.97;47.52;101745.59;5032807;28;20091;-76
2022/05/02 12:11:56;;;;;;;21.50;9.48;;;;;;;15.05;48.13;101744.13;5032917;28;20040;-76
2022/05/02 12:14:22;;;;;;;22.48;10.68;;;;;;;15.14;46.22;101751.53;5031492;28;20433;-76